OOMS/MCT METAR and TAF weather

Enter ICAO airport designator
Station Type Date Time Source
OOMS METAR 2019/08/21 01:50 UTC NOAA

OOMS 210150Z 27002KT CAVOK 26/25 Q1004 NOSIG


Station Type Date Time Source
OOMS Decoded METAR 2019/08/21 01:50 UTC NOAA

Station name not available
Aug 20, 2019 - 09:50 PM EDT / 2019.08.21 0150 UTC
Wind: from the W (270 degrees) at 2 MPH (2 KT):0
Visibility: greater than 7 mile(s):0
Temperature: 78 F (26 C)
Dew Point: 77 F (25 C)
Relative Humidity: 94%
Pressure (altimeter): 29.65 in. Hg (1004 hPa)
ob: OOMS 210150Z 27002KT CAVOK 26/25 Q1004 NOSIG
cycle: 2

Station Type Date Time Source
OOMS TAF 2019/08/20 18:03 UTC NOAA

TAF OOMS 201700Z 2018/2124 VRB02KT 8000 NSC
BECMG 2106/2108 05012KT
BECMG 2116/2118 VRB02KT

Example: see airport list